sensor_id;sensor_type;location;lat;lon;timestamp;temperature;humidity
14119;DHT22;7138;49.246;9.100;2022-09-01T00:02:25;16.10;99.90
14119;DHT22;7138;49.246;9.100;2022-09-01T00:04:54;16.00;99.90
14119;DHT22;7138;49.246;9.100;2022-09-01T00:07:24;16.00;99.90
14119;DHT22;7138;49.246;9.100;2022-09-01T00:09:51;15.90;99.90
14119;DHT22;7138;49.246;9.100;2022-09-01T00:12:17;15.90;99.90
14119;DHT22;7138;49.246;9.100;2022-09-01T00:14:47;15.80;99.90
14119;DHT22;7138;49.246;9.100;2022-09-01T00:17:12;15.80;99.90
14119;DHT22;7138;49.246;9.100;2022-09-01T00:19:38;15.80;99.90
14119;DHT22;7138;49.246;9.100;2022-09-01T00:22:05;15.80;99.90
14119;DHT22;7138;49.246;9.100;2022-09-01T00:24:33;15.70;99.90
14119;DHT22;7138;49.246;9.100;2022-09-01T00:26:59;15.80;99.90
14119;DHT22;7138;49.246;9.100;2022-09-01T00:29:25;15.90;99.90
14119;DHT22;7138;49.246;9.100;2022-09-01T00:31:51;15.80;99.90
14119;DHT22;7138;49.246;9.100;2022-09-01T00:34:18;15.70;99.90
14119;DHT22;7138;49.246;9.100;2022-09-01T00:36:44;15.80;99.90
14119;DHT22;7138;49.246;9.100;2022-09-01T00:39:12;15.80;99.90
14119;DHT22;7138;49.246;9.100;2022-09-01T00:41:41;15.80;99.90
14119;DHT22;7138;49.246;9.100;2022-09-01T00:44:10;15.90;99.90
14119;DHT22;7138;49.246;9.100;2022-09-01T00:46:40;15.80;99.90
14119;DHT22;7138;49.246;9.100;2022-09-01T00:49:10;15.80;99.90
14119;DHT22;7138;49.246;9.100;2022-09-01T00:51:42;15.80;99.90
14119;DHT22;7138;49.246;9.100;2022-09-01T00:54:17;15.80;99.90
14119;DHT22;7138;49.246;9.100;2022-09-01T00:56:47;15.90;99.90
14119;DHT22;7138;49.246;9.100;2022-09-01T00:59:16;15.80;99.90
14119;DHT22;7138;49.246;9.100;2022-09-01T01:01:45;15.90;99.90
14119;DHT22;7138;49.246;9.100;2022-09-01T01:04:11;15.80;99.90
14119;DHT22;7138;49.246;9.100;2022-09-01T01:06:40;15.80;99.90
14119;DHT22;7138;49.246;9.100;2022-09-01T01:09:08;15.80;99.90
14119;DHT22;7138;49.246;9.100;2022-09-01T01:11:34;15.70;99.90
14119;DHT22;7138;49.246;9.100;2022-09-01T01:14:03;15.70;99.90
14119;DHT22;7138;49.246;9.100;2022-09-01T01:16:35;15.70;99.90
14119;DHT22;7138;49.246;9.100;2022-09-01T01:19:05;15.60;99.90
14119;DHT22;7138;49.246;9.100;2022-09-01T01:21:55;15.70;99.90
14119;DHT22;7138;49.246;9.100;2022-09-01T01:24:41;15.70;99.90
14119;DHT22;7138;49.246;9.100;2022-09-01T01:27:08;15.60;99.90
14119;DHT22;7138;49.246;9.100;2022-09-01T01:29:35;15.60;99.90
14119;DHT22;7138;49.246;9.100;2022-09-01T01:32:04;15.60;99.90
14119;DHT22;7138;49.246;9.100;2022-09-01T01:34:37;15.50;99.90
14119;DHT22;7138;49.246;9.100;2022-09-01T01:37:10;15.60;99.90
14119;DHT22;7138;49.246;9.100;2022-09-01T01:39:39;15.50;99.90
14119;DHT22;7138;49.246;9.100;2022-09-01T01:42:09;15.50;99.90
14119;DHT22;7138;49.246;9.100;2022-09-01T01:44:36;15.50;99.90
14119;DHT22;7138;49.246;9.100;2022-09-01T01:47:04;15.50;99.90
14119;DHT22;7138;49.246;9.100;2022-09-01T01:49:33;15.50;99.90
14119;DHT22;7138;49.246;9.100;2022-09-01T01:52:01;15.40;99.90
14119;DHT22;7138;49.246;9.100;2022-09-01T01:54:29;15.40;99.90
14119;DHT22;7138;49.246;9.100;2022-09-01T01:56:56;15.40;99.90
14119;DHT22;7138;49.246;9.100;2022-09-01T01:59:24;15.40;99.90
14119;DHT22;7138;49.246;9.100;2022-09-01T02:01:51;15.40;99.90
14119;DHT22;7138;49.246;9.100;2022-09-01T02:04:19;15.40;99.90
14119;DHT22;7138;49.246;9.100;2022-09-01T02:06:46;15.40;99.90
14119;DHT22;7138;49.246;9.100;2022-09-01T02:09:15;15.40;99.90
14119;DHT22;7138;49.246;9.100;2022-09-01T02:11:43;15.40;99.90
14119;DHT22;7138;49.246;9.100;2022-09-01T02:14:10;15.40;99.90
14119;DHT22;7138;49.246;9.100;2022-09-01T02:16:39;15.40;99.90
14119;DHT22;7138;49.246;9.100;2022-09-01T02:19:07;15.30;99.90
14119;DHT22;7138;49.246;9.100;2022-09-01T02:21:34;15.30;99.90
14119;DHT22;7138;49.246;9.100;2022-09-01T02:24:03;15.30;99.90
14119;DHT22;7138;49.246;9.100;2022-09-01T02:26:35;15.30;99.90
14119;DHT22;7138;49.246;9.100;2022-09-01T02:29:08;15.30;99.90
14119;DHT22;7138;49.246;9.100;2022-09-01T02:31:44;15.30;99.90
14119;DHT22;7138;49.246;9.100;2022-09-01T02:34:12;15.40;99.90
14119;DHT22;7138;49.246;9.100;2022-09-01T02:36:39;15.40;99.90
14119;DHT22;7138;49.246;9.100;2022-09-01T02:39:08;15.40;99.90
14119;DHT22;7138;49.246;9.100;2022-09-01T02:41:35;15.40;99.90
14119;DHT22;7138;49.246;9.100;2022-09-01T02:44:02;15.40;99.90
14119;DHT22;7138;49.246;9.100;2022-09-01T02:46:28;15.40;99.90
14119;DHT22;7138;49.246;9.100;2022-09-01T02:48:56;15.40;99.90
14119;DHT22;7138;49.246;9.100;2022-09-01T02:51:24;15.30;99.90
14119;DHT22;7138;49.246;9.100;2022-09-01T02:53:51;15.40;99.90
14119;DHT22;7138;49.246;9.100;2022-09-01T02:56:20;15.30;99.90
14119;DHT22;7138;49.246;9.100;2022-09-01T02:58:48;15.30;99.90
14119;DHT22;7138;49.246;9.100;2022-09-01T03:01:18;15.30;99.90
14119;DHT22;7138;49.246;9.100;2022-09-01T03:03:50;15.30;99.90
14119;DHT22;7138;49.246;9.100;2022-09-01T03:06:20;15.30;99.90
14119;DHT22;7138;49.246;9.100;2022-09-01T03:08:48;15.30;99.90
14119;DHT22;7138;49.246;9.100;2022-09-01T03:11:15;15.30;99.90
14119;DHT22;7138;49.246;9.100;2022-09-01T03:13:41;15.30;99.90
14119;DHT22;7138;49.246;9.100;2022-09-01T03:16:08;15.30;99.90
14119;DHT22;7138;49.246;9.100;2022-09-01T03:18:38;15.40;99.90
14119;DHT22;7138;49.246;9.100;2022-09-01T03:21:05;15.50;99.90
14119;DHT22;7138;49.246;9.100;2022-09-01T03:23:36;15.50;99.90
14119;DHT22;7138;49.246;9.100;2022-09-01T03:26:02;15.50;99.90
14119;DHT22;7138;49.246;9.100;2022-09-01T03:28:29;15.50;99.90
14119;DHT22;7138;49.246;9.100;2022-09-01T03:30:56;15.60;99.90
14119;DHT22;7138;49.246;9.100;2022-09-01T03:33:25;15.60;99.90
14119;DHT22;7138;49.246;9.100;2022-09-01T03:35:52;15.60;99.90
14119;DHT22;7138;49.246;9.100;2022-09-01T03:38:18;15.50;99.90
14119;DHT22;7138;49.246;9.100;2022-09-01T03:40:52;15.60;99.90
14119;DHT22;7138;49.246;9.100;2022-09-01T03:43:24;15.60;99.90
14119;DHT22;7138;49.246;9.100;2022-09-01T03:45:52;15.60;99.90
14119;DHT22;7138;49.246;9.100;2022-09-01T03:48:21;15.60;99.90
14119;DHT22;7138;49.246;9.100;2022-09-01T03:50:49;15.60;99.90
14119;DHT22;7138;49.246;9.100;2022-09-01T03:53:18;15.50;99.90
14119;DHT22;7138;49.246;9.100;2022-09-01T03:55:47;15.50;99.90
14119;DHT22;7138;49.246;9.100;2022-09-01T03:58:16;15.50;99.90
14119;DHT22;7138;49.246;9.100;2022-09-01T04:00:45;15.50;99.90
14119;DHT22;7138;49.246;9.100;2022-09-01T04:03:15;15.50;99.90
14119;DHT22;7138;49.246;9.100;2022-09-01T04:05:46;15.40;99.90
14119;DHT22;7138;49.246;9.100;2022-09-01T04:08:14;15.40;99.90
14119;DHT22;7138;49.246;9.100;2022-09-01T04:10:43;15.40;99.90
14119;DHT22;7138;49.246;9.100;2022-09-01T04:13:17;15.40;99.90
14119;DHT22;7138;49.246;9.100;2022-09-01T04:15:45;15.50;99.90
14119;DHT22;7138;49.246;9.100;2022-09-01T04:18:11;15.50;99.90
14119;DHT22;7138;49.246;9.100;2022-09-01T04:20:45;15.50;99.90
14119;DHT22;7138;49.246;9.100;2022-09-01T04:23:14;15.50;99.90
14119;DHT22;7138;49.246;9.100;2022-09-01T04:25:45;15.50;99.90
14119;DHT22;7138;49.246;9.100;2022-09-01T04:28:13;15.50;99.90
14119;DHT22;7138;49.246;9.100;2022-09-01T04:30:49;15.50;99.90
14119;DHT22;7138;49.246;9.100;2022-09-01T04:33:18;15.50;99.90
14119;DHT22;7138;49.246;9.100;2022-09-01T04:35:43;15.60;99.90
14119;DHT22;7138;49.246;9.100;2022-09-01T04:38:10;15.50;99.90
14119;DHT22;7138;49.246;9.100;2022-09-01T04:40:37;15.60;99.90
14119;DHT22;7138;49.246;9.100;2022-09-01T04:43:03;15.50;99.90
14119;DHT22;7138;49.246;9.100;2022-09-01T04:45:29;15.50;99.90
14119;DHT22;7138;49.246;9.100;2022-09-01T04:47:57;15.50;99.90
14119;DHT22;7138;49.246;9.100;2022-09-01T04:50:25;15.50;99.90
14119;DHT22;7138;49.246;9.100;2022-09-01T04:52:57;15.50;99.90
14119;DHT22;7138;49.246;9.100;2022-09-01T04:55:26;15.50;99.90
14119;DHT22;7138;49.246;9.100;2022-09-01T04:57:55;15.50;99.90
14119;DHT22;7138;49.246;9.100;2022-09-01T05:00:25;15.50;99.90
14119;DHT22;7138;49.246;9.100;2022-09-01T05:02:54;15.50;99.90
14119;DHT22;7138;49.246;9.100;2022-09-01T05:05:36;15.50;99.90
14119;DHT22;7138;49.246;9.100;2022-09-01T05:08:04;15.50;99.90
14119;DHT22;7138;49.246;9.100;2022-09-01T05:10:31;15.60;99.90
14119;DHT22;7138;49.246;9.100;2022-09-01T05:13:01;15.50;99.90
14119;DHT22;7138;49.246;9.100;2022-09-01T05:15:35;15.50;99.90
14119;DHT22;7138;49.246;9.100;2022-09-01T05:18:01;15.50;99.90
14119;DHT22;7138;49.246;9.100;2022-09-01T05:20:37;15.50;99.90
14119;DHT22;7138;49.246;9.100;2022-09-01T05:23:05;15.70;99.90
14119;DHT22;7138;49.246;9.100;2022-09-01T05:25:36;15.90;99.90
14119;DHT22;7138;49.246;9.100;2022-09-01T05:28:04;15.90;99.90
14119;DHT22;7138;49.246;9.100;2022-09-01T05:30:29;16.10;99.90
14119;DHT22;7138;49.246;9.100;2022-09-01T05:32:56;16.20;99.90
14119;DHT22;7138;49.246;9.100;2022-09-01T05:35:22;16.30;99.90
14119;DHT22;7138;49.246;9.100;2022-09-01T05:37:52;16.40;99.90
14119;DHT22;7138;49.246;9.100;2022-09-01T05:40:19;16.60;99.90
14119;DHT22;7138;49.246;9.100;2022-09-01T05:42:45;16.60;99.90
14119;DHT22;7138;49.246;9.100;2022-09-01T05:45:12;16.80;99.90
14119;DHT22;7138;49.246;9.100;2022-09-01T05:47:38;17.10;99.90
14119;DHT22;7138;49.246;9.100;2022-09-01T05:50:06;17.10;99.90
14119;DHT22;7138;49.246;9.100;2022-09-01T05:52:36;17.40;99.90
14119;DHT22;7138;49.246;9.100;2022-09-01T05:55:06;17.30;99.90
14119;DHT22;7138;49.246;9.100;2022-09-01T05:57:33;17.80;99.90
14119;DHT22;7138;49.246;9.100;2022-09-01T05:59:59;17.60;99.90
14119;DHT22;7138;49.246;9.100;2022-09-01T06:02:26;17.50;99.90
14119;DHT22;7138;49.246;9.100;2022-09-01T06:04:53;17.20;99.90
14119;DHT22;7138;49.246;9.100;2022-09-01T06:07:22;17.10;99.90
14119;DHT22;7138;49.246;9.100;2022-09-01T06:09:48;17.60;99.90
14119;DHT22;7138;49.246;9.100;2022-09-01T06:12:16;17.90;99.90
14119;DHT22;7138;49.246;9.100;2022-09-01T06:14:42;17.60;99.90
14119;DHT22;7138;49.246;9.100;2022-09-01T06:17:09;17.20;99.90
14119;DHT22;7138;49.246;9.100;2022-09-01T06:19:36;16.90;99.90
14119;DHT22;7138;49.246;9.100;2022-09-01T06:22:02;16.70;99.90
14119;DHT22;7138;49.246;9.100;2022-09-01T06:24:28;16.50;99.90
14119;DHT22;7138;49.246;9.100;2022-09-01T06:26:54;16.30;99.90
14119;DHT22;7138;49.246;9.100;2022-09-01T06:29:21;16.20;99.90
14119;DHT22;7138;49.246;9.100;2022-09-01T06:31:47;16.20;99.90
14119;DHT22;7138;49.246;9.100;2022-09-01T06:34:17;16.40;99.90
14119;DHT22;7138;49.246;9.100;2022-09-01T06:36:44;16.30;99.90
14119;DHT22;7138;49.246;9.100;2022-09-01T06:39:16;16.40;99.90
14119;DHT22;7138;49.246;9.100;2022-09-01T06:41:45;16.60;99.90
14119;DHT22;7138;49.246;9.100;2022-09-01T06:44:13;16.80;99.90
14119;DHT22;7138;49.246;9.100;2022-09-01T06:46:41;16.80;99.90
14119;DHT22;7138;49.246;9.100;2022-09-01T06:49:06;16.90;99.90
14119;DHT22;7138;49.246;9.100;2022-09-01T06:51:36;16.60;99.90
14119;DHT22;7138;49.246;9.100;2022-09-01T06:54:02;16.70;99.90
14119;DHT22;7138;49.246;9.100;2022-09-01T06:56:30;16.90;99.90
14119;DHT22;7138;49.246;9.100;2022-09-01T06:58:59;17.20;99.90
14119;DHT22;7138;49.246;9.100;2022-09-01T07:01:28;17.30;99.90
14119;DHT22;7138;49.246;9.100;2022-09-01T07:03:56;17.20;99.90
14119;DHT22;7138;49.246;9.100;2022-09-01T07:06:22;17.00;99.90
14119;DHT22;7138;49.246;9.100;2022-09-01T07:08:52;17.00;99.90
14119;DHT22;7138;49.246;9.100;2022-09-01T07:11:22;17.10;99.90
14119;DHT22;7138;49.246;9.100;2022-09-01T07:13:53;17.00;99.90
14119;DHT22;7138;49.246;9.100;2022-09-01T07:16:21;17.30;99.90
14119;DHT22;7138;49.246;9.100;2022-09-01T07:18:49;17.30;99.90
14119;DHT22;7138;49.246;9.100;2022-09-01T07:21:17;17.40;99.90
14119;DHT22;7138;49.246;9.100;2022-09-01T07:23:44;17.40;99.90
14119;DHT22;7138;49.246;9.100;2022-09-01T07:26:12;17.30;99.90
14119;DHT22;7138;49.246;9.100;2022-09-01T07:28:43;17.30;99.90
14119;DHT22;7138;49.246;9.100;2022-09-01T07:31:16;17.30;99.90
14119;DHT22;7138;49.246;9.100;2022-09-01T07:33:45;17.40;99.90
14119;DHT22;7138;49.246;9.100;2022-09-01T07:36:13;17.50;99.90
14119;DHT22;7138;49.246;9.100;2022-09-01T07:38:40;17.30;99.90
14119;DHT22;7138;49.246;9.100;2022-09-01T07:41:07;17.50;99.90
14119;DHT22;7138;49.246;9.100;2022-09-01T07:43:33;17.60;99.90
14119;DHT22;7138;49.246;9.100;2022-09-01T07:46:03;17.80;99.90
14119;DHT22;7138;49.246;9.100;2022-09-01T07:48:29;18.00;99.90
14119;DHT22;7138;49.246;9.100;2022-09-01T07:50:55;18.20;99.90
14119;DHT22;7138;49.246;9.100;2022-09-01T07:53:23;18.30;99.90
14119;DHT22;7138;49.246;9.100;2022-09-01T07:55:53;18.30;99.90
14119;DHT22;7138;49.246;9.100;2022-09-01T07:58:22;18.30;99.90
14119;DHT22;7138;49.246;9.100;2022-09-01T08:00:51;18.40;99.90
14119;DHT22;7138;49.246;9.100;2022-09-01T08:03:20;18.30;99.90
14119;DHT22;7138;49.246;9.100;2022-09-01T08:05:47;18.40;99.90
14119;DHT22;7138;49.246;9.100;2022-09-01T08:08:15;18.70;99.90
14119;DHT22;7138;49.246;9.100;2022-09-01T08:10:42;19.00;99.90
14119;DHT22;7138;49.246;9.100;2022-09-01T08:13:11;19.40;99.90
14119;DHT22;7138;49.246;9.100;2022-09-01T08:15:38;19.40;99.90
14119;DHT22;7138;49.246;9.100;2022-09-01T08:18:04;19.90;99.90
14119;DHT22;7138;49.246;9.100;2022-09-01T08:20:30;20.30;99.90
14119;DHT22;7138;49.246;9.100;2022-09-01T08:22:59;20.10;99.90
14119;DHT22;7138;49.246;9.100;2022-09-01T08:25:25;20.00;99.90
14119;DHT22;7138;49.246;9.100;2022-09-01T08:27:52;19.70;99.90
14119;DHT22;7138;49.246;9.100;2022-09-01T08:30:19;19.50;99.90
14119;DHT22;7138;49.246;9.100;2022-09-01T08:32:45;19.70;99.90
14119;DHT22;7138;49.246;9.100;2022-09-01T08:35:12;19.90;99.90
14119;DHT22;7138;49.246;9.100;2022-09-01T08:37:39;19.90;99.90
14119;DHT22;7138;49.246;9.100;2022-09-01T08:40:06;19.90;99.90
14119;DHT22;7138;49.246;9.100;2022-09-01T08:42:46;19.50;99.90
14119;DHT22;7138;49.246;9.100;2022-09-01T08:45:22;19.50;99.90
14119;DHT22;7138;49.246;9.100;2022-09-01T08:47:53;19.70;99.90
14119;DHT22;7138;49.246;9.100;2022-09-01T08:50:23;20.10;99.90
14119;DHT22;7138;49.246;9.100;2022-09-01T08:52:54;20.30;99.90
14119;DHT22;7138;49.246;9.100;2022-09-01T08:55:35;20.00;99.90
14119;DHT22;7138;49.246;9.100;2022-09-01T08:58:07;19.90;99.90
14119;DHT22;7138;49.246;9.100;2022-09-01T09:00:40;20.30;99.90
14119;DHT22;7138;49.246;9.100;2022-09-01T09:03:17;20.60;99.90
14119;DHT22;7138;49.246;9.100;2022-09-01T09:06:02;20.70;99.90
14119;DHT22;7138;49.246;9.100;2022-09-01T09:08:51;20.40;99.90
14119;DHT22;7138;49.246;9.100;2022-09-01T09:11:39;20.70;99.90
14119;DHT22;7138;49.246;9.100;2022-09-01T09:14:23;21.10;99.90
14119;DHT22;7138;49.246;9.100;2022-09-01T09:17:09;22.00;99.90
14119;DHT22;7138;49.246;9.100;2022-09-01T09:19:37;21.80;99.90
14119;DHT22;7138;49.246;9.100;2022-09-01T09:22:05;20.80;99.90
14119;DHT22;7138;49.246;9.100;2022-09-01T09:24:38;20.70;99.90
14119;DHT22;7138;49.246;9.100;2022-09-01T09:27:19;21.00;99.90
14119;DHT22;7138;49.246;9.100;2022-09-01T09:29:48;21.50;99.90
14119;DHT22;7138;49.246;9.100;2022-09-01T09:32:18;21.40;99.90
14119;DHT22;7138;49.246;9.100;2022-09-01T09:34:44;21.20;99.90
14119;DHT22;7138;49.246;9.100;2022-09-01T09:37:22;20.90;99.90
14119;DHT22;7138;49.246;9.100;2022-09-01T09:40:17;20.60;99.90
14119;DHT22;7138;49.246;9.100;2022-09-01T09:43:02;21.40;99.90
14119;DHT22;7138;49.246;9.100;2022-09-01T09:45:31;22.40;99.90
14119;DHT22;7138;49.246;9.100;2022-09-01T09:48:05;22.70;99.90
14119;DHT22;7138;49.246;9.100;2022-09-01T09:50:35;23.10;99.90
14119;DHT22;7138;49.246;9.100;2022-09-01T09:53:17;22.80;99.90
14119;DHT22;7138;49.246;9.100;2022-09-01T09:55:58;22.40;99.90
14119;DHT22;7138;49.246;9.100;2022-09-01T09:58:28;22.50;99.90
14119;DHT22;7138;49.246;9.100;2022-09-01T10:01:06;23.50;99.90
14119;DHT22;7138;49.246;9.100;2022-09-01T10:03:43;23.20;99.90
14119;DHT22;7138;49.246;9.100;2022-09-01T10:06:13;22.90;99.90
14119;DHT22;7138;49.246;9.100;2022-09-01T10:08:55;22.30;99.90
14119;DHT22;7138;49.246;9.100;2022-09-01T10:11:29;22.50;99.90
14119;DHT22;7138;49.246;9.100;2022-09-01T10:14:01;22.50;99.90
14119;DHT22;7138;49.246;9.100;2022-09-01T10:16:30;22.70;99.90
14119;DHT22;7138;49.246;9.100;2022-09-01T10:19:01;22.40;99.90
14119;DHT22;7138;49.246;9.100;2022-09-01T10:21:31;22.40;99.90
14119;DHT22;7138;49.246;9.100;2022-09-01T10:23:59;21.90;99.90
14119;DHT22;7138;49.246;9.100;2022-09-01T10:26:31;21.70;99.90
14119;DHT22;7138;49.246;9.100;2022-09-01T10:29:05;21.70;99.90
14119;DHT22;7138;49.246;9.100;2022-09-01T10:31:35;21.70;99.90
14119;DHT22;7138;49.246;9.100;2022-09-01T10:34:04;22.00;99.90
14119;DHT22;7138;49.246;9.100;2022-09-01T10:36:32;22.30;99.90
14119;DHT22;7138;49.246;9.100;2022-09-01T10:39:01;22.10;99.90
14119;DHT22;7138;49.246;9.100;2022-09-01T10:41:51;21.80;99.90
14119;DHT22;7138;49.246;9.100;2022-09-01T10:44:23;21.80;99.90
14119;DHT22;7138;49.246;9.100;2022-09-01T10:46:55;21.70;99.90
14119;DHT22;7138;49.246;9.100;2022-09-01T10:52:54;22.00;99.90
14119;DHT22;7138;49.246;9.100;2022-09-01T10:55:24;22.20;99.90
14119;DHT22;7138;49.246;9.100;2022-09-01T10:57:59;21.90;99.90
14119;DHT22;7138;49.246;9.100;2022-09-01T11:00:49;22.10;99.90
14119;DHT22;7138;49.246;9.100;2022-09-01T11:09:33;22.20;99.90
14119;DHT22;7138;49.246;9.100;2022-09-01T11:12:27;22.10;99.90
14119;DHT22;7138;49.246;9.100;2022-09-01T11:15:33;22.20;99.90
14119;DHT22;7138;49.246;9.100;2022-09-01T11:18:07;22.10;99.90
14119;DHT22;7138;49.246;9.100;2022-09-01T11:20:37;22.20;99.90
14119;DHT22;7138;49.246;9.100;2022-09-01T11:23:10;22.50;99.90
14119;DHT22;7138;49.246;9.100;2022-09-01T11:25:40;22.60;99.90
14119;DHT22;7138;49.246;9.100;2022-09-01T11:31:17;22.70;99.90
14119;DHT22;7138;49.246;9.100;2022-09-01T11:36:51;23.40;99.90
14119;DHT22;7138;49.246;9.100;2022-09-01T11:39:39;23.60;99.90
14119;DHT22;7138;49.246;9.100;2022-09-01T11:42:10;23.90;99.90
14119;DHT22;7138;49.246;9.100;2022-09-01T11:44:48;24.50;99.90
14119;DHT22;7138;49.246;9.100;2022-09-01T11:47:20;24.10;99.90
14119;DHT22;7138;49.246;9.100;2022-09-01T11:49:52;24.00;99.90
14119;DHT22;7138;49.246;9.100;2022-09-01T11:52:21;23.90;99.90
14119;DHT22;7138;49.246;9.100;2022-09-01T11:54:51;23.40;99.90
14119;DHT22;7138;49.246;9.100;2022-09-01T11:57:28;23.30;99.90
14119;DHT22;7138;49.246;9.100;2022-09-01T11:59:57;23.60;99.90
14119;DHT22;7138;49.246;9.100;2022-09-01T12:02:26;23.10;99.90
14119;DHT22;7138;49.246;9.100;2022-09-01T12:04:58;22.80;99.90
14119;DHT22;7138;49.246;9.100;2022-09-01T12:07:34;22.70;99.90
14119;DHT22;7138;49.246;9.100;2022-09-01T12:10:13;22.70;99.90
14119;DHT22;7138;49.246;9.100;2022-09-01T12:12:43;23.20;99.90
14119;DHT22;7138;49.246;9.100;2022-09-01T12:15:16;24.00;99.90
14119;DHT22;7138;49.246;9.100;2022-09-01T12:17:44;24.00;99.90
14119;DHT22;7138;49.246;9.100;2022-09-01T12:20:23;24.20;99.90
14119;DHT22;7138;49.246;9.100;2022-09-01T12:22:51;24.30;99.90
14119;DHT22;7138;49.246;9.100;2022-09-01T12:25:22;24.70;99.90
14119;DHT22;7138;49.246;9.100;2022-09-01T12:27:50;25.00;99.90
14119;DHT22;7138;49.246;9.100;2022-09-01T12:30:18;24.90;99.90
14119;DHT22;7138;49.246;9.100;2022-09-01T12:32:46;24.60;99.90
14119;DHT22;7138;49.246;9.100;2022-09-01T12:35:15;24.40;99.90
14119;DHT22;7138;49.246;9.100;2022-09-01T12:37:44;24.40;99.90
14119;DHT22;7138;49.246;9.100;2022-09-01T12:40:23;24.40;99.90
14119;DHT22;7138;49.246;9.100;2022-09-01T12:42:55;24.50;99.90
14119;DHT22;7138;49.246;9.100;2022-09-01T12:45:39;24.30;99.90
14119;DHT22;7138;49.246;9.100;2022-09-01T12:48:22;24.60;99.90
14119;DHT22;7138;49.246;9.100;2022-09-01T12:50:50;24.80;99.90
14119;DHT22;7138;49.246;9.100;2022-09-01T12:53:20;24.70;99.90
14119;DHT22;7138;49.246;9.100;2022-09-01T12:56:09;24.70;99.90
14119;DHT22;7138;49.246;9.100;2022-09-01T12:58:47;25.00;99.90
14119;DHT22;7138;49.246;9.100;2022-09-01T13:01:27;25.20;99.90
14119;DHT22;7138;49.246;9.100;2022-09-01T13:06:58;25.20;99.90
14119;DHT22;7138;49.246;9.100;2022-09-01T13:09:26;24.70;99.90
14119;DHT22;7138;49.246;9.100;2022-09-01T13:12:14;25.00;99.90
14119;DHT22;7138;49.246;9.100;2022-09-01T13:14:41;24.80;99.90
14119;DHT22;7138;49.246;9.100;2022-09-01T13:17:07;25.70;99.90
14119;DHT22;7138;49.246;9.100;2022-09-01T13:19:33;25.10;99.90
14119;DHT22;7138;49.246;9.100;2022-09-01T13:21:59;25.60;99.90
14119;DHT22;7138;49.246;9.100;2022-09-01T13:24:25;25.50;99.90
14119;DHT22;7138;49.246;9.100;2022-09-01T13:26:51;25.70;99.90
14119;DHT22;7138;49.246;9.100;2022-09-01T13:29:23;25.60;99.90
14119;DHT22;7138;49.246;9.100;2022-09-01T13:31:49;25.60;99.90
14119;DHT22;7138;49.246;9.100;2022-09-01T13:34:15;25.40;99.90
14119;DHT22;7138;49.246;9.100;2022-09-01T13:36:41;25.20;99.90
14119;DHT22;7138;49.246;9.100;2022-09-01T13:39:07;25.40;99.90
14119;DHT22;7138;49.246;9.100;2022-09-01T13:41:33;25.10;99.90
14119;DHT22;7138;49.246;9.100;2022-09-01T13:43:59;24.70;99.90
14119;DHT22;7138;49.246;9.100;2022-09-01T13:46:26;24.20;99.90
14119;DHT22;7138;49.246;9.100;2022-09-01T13:48:52;23.90;99.90
14119;DHT22;7138;49.246;9.100;2022-09-01T13:51:24;23.70;99.90
14119;DHT22;7138;49.246;9.100;2022-09-01T13:53:50;23.60;99.90
14119;DHT22;7138;49.246;9.100;2022-09-01T13:56:16;23.90;99.90
14119;DHT22;7138;49.246;9.100;2022-09-01T13:58:42;24.20;99.90
14119;DHT22;7138;49.246;9.100;2022-09-01T14:01:08;24.20;99.90
14119;DHT22;7138;49.246;9.100;2022-09-01T14:03:38;23.60;99.90
14119;DHT22;7138;49.246;9.100;2022-09-01T14:06:05;23.60;99.90
14119;DHT22;7138;49.246;9.100;2022-09-01T14:08:31;23.90;99.90
14119;DHT22;7138;49.246;9.100;2022-09-01T14:10:58;24.10;99.90
14119;DHT22;7138;49.246;9.100;2022-09-01T14:13:25;24.20;99.90
14119;DHT22;7138;49.246;9.100;2022-09-01T14:15:53;24.40;99.90
14119;DHT22;7138;49.246;9.100;2022-09-01T14:18:20;24.40;99.90
14119;DHT22;7138;49.246;9.100;2022-09-01T14:20:49;25.10;99.90
14119;DHT22;7138;49.246;9.100;2022-09-01T14:23:17;25.30;99.90
14119;DHT22;7138;49.246;9.100;2022-09-01T14:25:46;25.60;99.90
14119;DHT22;7138;49.246;9.100;2022-09-01T14:28:14;25.80;99.90
14119;DHT22;7138;49.246;9.100;2022-09-01T14:30:41;25.90;99.90
14119;DHT22;7138;49.246;9.100;2022-09-01T14:33:08;26.00;99.90
14119;DHT22;7138;49.246;9.100;2022-09-01T14:35:37;25.90;99.90
14119;DHT22;7138;49.246;9.100;2022-09-01T14:38:06;25.40;99.90
14119;DHT22;7138;49.246;9.100;2022-09-01T14:40:34;25.10;99.90
14119;DHT22;7138;49.246;9.100;2022-09-01T14:43:03;24.80;99.90
14119;DHT22;7138;49.246;9.100;2022-09-01T14:45:29;24.50;99.90
14119;DHT22;7138;49.246;9.100;2022-09-01T14:47:57;24.40;99.90
14119;DHT22;7138;49.246;9.100;2022-09-01T14:50:26;24.50;99.90
14119;DHT22;7138;49.246;9.100;2022-09-01T14:52:58;24.60;99.90
14119;DHT22;7138;49.246;9.100;2022-09-01T14:55:28;24.50;99.90
14119;DHT22;7138;49.246;9.100;2022-09-01T14:57:54;24.30;99.90
14119;DHT22;7138;49.246;9.100;2022-09-01T15:00:22;24.20;99.90
14119;DHT22;7138;49.246;9.100;2022-09-01T15:02:49;24.00;99.90
14119;DHT22;7138;49.246;9.100;2022-09-01T15:05:15;23.60;99.90
14119;DHT22;7138;49.246;9.100;2022-09-01T15:07:42;23.60;99.90
14119;DHT22;7138;49.246;9.100;2022-09-01T15:10:10;23.70;99.90
14119;DHT22;7138;49.246;9.100;2022-09-01T15:12:39;23.60;99.90
14119;DHT22;7138;49.246;9.100;2022-09-01T15:15:06;23.60;99.90
14119;DHT22;7138;49.246;9.100;2022-09-01T15:17:34;23.50;99.90
14119;DHT22;7138;49.246;9.100;2022-09-01T15:20:01;23.40;99.90
14119;DHT22;7138;49.246;9.100;2022-09-01T15:22:49;23.30;99.90
14119;DHT22;7138;49.246;9.100;2022-09-01T15:25:15;23.40;99.90
14119;DHT22;7138;49.246;9.100;2022-09-01T15:27:43;23.50;99.90
14119;DHT22;7138;49.246;9.100;2022-09-01T15:30:14;23.70;99.90
14119;DHT22;7138;49.246;9.100;2022-09-01T15:32:41;23.70;99.90
14119;DHT22;7138;49.246;9.100;2022-09-01T15:35:09;23.50;99.90
14119;DHT22;7138;49.246;9.100;2022-09-01T15:37:35;23.50;99.90
14119;DHT22;7138;49.246;9.100;2022-09-01T15:40:02;23.50;99.90
14119;DHT22;7138;49.246;9.100;2022-09-01T15:42:28;23.50;99.90
14119;DHT22;7138;49.246;9.100;2022-09-01T15:44:55;23.20;99.90
14119;DHT22;7138;49.246;9.100;2022-09-01T15:47:21;23.20;99.90
14119;DHT22;7138;49.246;9.100;2022-09-01T15:49:47;23.10;99.90
14119;DHT22;7138;49.246;9.100;2022-09-01T15:52:13;23.20;99.90
14119;DHT22;7138;49.246;9.100;2022-09-01T15:54:41;23.10;99.90
14119;DHT22;7138;49.246;9.100;2022-09-01T15:57:06;23.10;99.90
14119;DHT22;7138;49.246;9.100;2022-09-01T15:59:32;23.00;99.90
14119;DHT22;7138;49.246;9.100;2022-09-01T16:02:00;22.90;99.90
14119;DHT22;7138;49.246;9.100;2022-09-01T16:04:26;22.90;99.90
14119;DHT22;7138;49.246;9.100;2022-09-01T16:06:52;22.80;99.90
14119;DHT22;7138;49.246;9.100;2022-09-01T16:09:20;22.80;99.90
14119;DHT22;7138;49.246;9.100;2022-09-01T16:11:46;22.80;99.90
14119;DHT22;7138;49.246;9.100;2022-09-01T16:14:13;22.70;99.90
14119;DHT22;7138;49.246;9.100;2022-09-01T16:16:46;22.70;99.90
14119;DHT22;7138;49.246;9.100;2022-09-01T16:19:27;22.70;99.90
14119;DHT22;7138;49.246;9.100;2022-09-01T16:22:04;22.60;99.90